createdAt,value
2023-04-17T00:03:20.645Z,66.21
2023-04-17T00:08:41.430Z,66.35
2023-04-17T00:14:02.209Z,66.64
2023-04-17T00:19:23.091Z,66.33
2023-04-17T00:24:43.741Z,66.43
2023-04-17T00:30:05.105Z,66.60
2023-04-17T00:35:25.809Z,66.91
2023-04-17T00:40:46.576Z,66.77
2023-04-17T00:46:08.208Z,66.84
2023-04-17T00:51:29.029Z,66.68
2023-04-17T00:56:51.693Z,66.50
2023-04-17T01:02:13.148Z,66.22
2023-04-17T01:07:33.939Z,66.35
2023-04-17T01:13:05.070Z,66.66
2023-04-17T01:18:27.044Z,66.46
2023-04-17T01:23:52.263Z,66.27
2023-04-17T01:29:14.335Z,66.26
2023-04-17T01:34:37.396Z,66.08
2023-04-17T01:39:59.535Z,66.13
2023-04-17T01:45:21.270Z,66.43
2023-04-17T01:50:42.265Z,66.44
2023-04-17T01:56:02.962Z,66.75
2023-04-17T02:01:24.419Z,66.52
2023-04-17T02:06:45.907Z,66.91
2023-04-17T02:12:06.947Z,66.71
2023-04-17T02:17:28.041Z,66.82
2023-04-17T02:22:48.623Z,66.76
2023-04-17T02:28:09.450Z,66.24
2023-04-17T02:33:30.010Z,66.60
2023-04-17T02:38:51.844Z,66.48
2023-04-17T02:44:12.580Z,66.38
2023-04-17T02:49:33.271Z,66.30
2023-04-17T02:54:54.959Z,66.53
2023-04-17T03:00:16.394Z,65.94
2023-04-17T03:05:37.241Z,65.96
2023-04-17T03:10:57.950Z,66.45
2023-04-17T03:16:18.723Z,66.39
2023-04-17T03:21:40.416Z,66.04
2023-04-17T03:27:02.332Z,66.04
2023-04-17T03:32:30.966Z,66.40
2023-04-17T03:37:51.678Z,66.46
2023-04-17T03:43:12.970Z,66.69
2023-04-17T03:48:33.713Z,66.36
2023-04-17T03:53:54.410Z,66.36
2023-04-17T03:59:15.054Z,67.09
2023-04-17T04:04:38.949Z,67.15
2023-04-17T04:10:04.758Z,67.37
2023-04-17T04:15:25.926Z,67.25
2023-04-17T04:20:51.144Z,67.53
2023-04-17T04:26:21.726Z,67.44
2023-04-17T04:31:51.044Z,67.56
2023-04-17T04:37:15.724Z,67.71
2023-04-17T04:42:42.290Z,68.01
2023-04-17T04:48:12.411Z,68.33
2023-04-17T04:53:33.646Z,68.20
2023-04-17T04:58:56.356Z,68.77
2023-04-17T05:04:17.291Z,68.82
2023-04-17T05:09:38.473Z,69.40
2023-04-17T05:15:00.907Z,69.00
2023-04-17T05:20:22.547Z,69.02
2023-04-17T05:25:48.988Z,69.17
2023-04-17T05:31:10.313Z,69.94
2023-04-17T05:36:35.439Z,69.62
2023-04-17T05:41:58.928Z,69.72
2023-04-17T05:47:19.728Z,69.82
2023-04-17T05:52:40.673Z,70.03
2023-04-17T05:58:20.403Z,69.90
2023-04-17T06:03:44.815Z,70.13
2023-04-17T06:09:11.979Z,70.21
2023-04-17T06:14:33.351Z,70.42
2023-04-17T06:19:58.396Z,70.69
2023-04-17T06:25:20.637Z,70.69
2023-04-17T06:30:41.435Z,70.91
2023-04-17T06:36:03.223Z,70.72
2023-04-17T06:41:32.448Z,70.79
2023-04-17T06:46:54.860Z,70.75
2023-04-17T06:52:15.584Z,70.58
2023-04-17T06:57:36.879Z,70.95
2023-04-17T07:02:57.770Z,70.79
2023-04-17T07:08:22.382Z,71.14
2023-04-17T07:13:43.370Z,71.20
2023-04-17T07:19:04.144Z,71.21
2023-04-17T07:24:24.786Z,71.33
2023-04-17T07:29:47.640Z,71.08
2023-04-17T07:35:08.676Z,71.46
2023-04-17T07:40:30.381Z,71.58
2023-04-17T07:45:51.098Z,71.69
2023-04-17T07:51:11.724Z,71.80
2023-04-17T07:56:34.667Z,71.58
2023-04-17T08:01:55.442Z,71.53
2023-04-17T08:07:18.316Z,71.32
2023-04-17T08:12:39.698Z,71.34
2023-04-17T08:18:00.727Z,71.81
2023-04-17T08:23:21.620Z,71.56
2023-04-17T08:28:42.413Z,71.50
2023-04-17T08:34:13.628Z,71.06
2023-04-17T08:39:35.785Z,71.21
2023-04-17T08:45:01.125Z,71.06
2023-04-17T08:50:22.287Z,70.81
2023-04-17T08:55:44.307Z,69.97
2023-04-17T09:01:10.753Z,70.31
2023-04-17T09:06:50.044Z,70.40
2023-04-17T09:12:11.251Z,70.73
2023-04-17T09:17:35.040Z,70.67
2023-04-17T09:23:01.344Z,70.75
2023-04-17T09:28:22.215Z,70.35
2023-04-17T09:34:04.470Z,70.60
2023-04-17T09:39:25.649Z,70.06
2023-04-17T09:44:47.156Z,69.93
2023-04-17T09:50:09.238Z,69.64
2023-04-17T09:55:31.477Z,69.37
2023-04-17T10:00:52.594Z,69.24
2023-04-17T10:06:14.121Z,69.40
2023-04-17T10:11:37.967Z,69.20
2023-04-17T10:16:58.992Z,69.33
2023-04-17T10:22:19.834Z,69.83
2023-04-17T10:27:40.550Z,69.45
2023-04-17T10:33:13.426Z,68.95
2023-04-17T10:38:36.207Z,69.05
2023-04-17T10:43:57.484Z,68.92
2023-04-17T10:49:18.250Z,68.70
2023-04-17T10:55:18.049Z,68.22
2023-04-17T11:00:50.867Z,67.82
2023-04-17T11:06:13.366Z,67.88
2023-04-17T11:11:44.041Z,67.83
2023-04-17T11:17:05.683Z,67.28
2023-04-17T11:22:28.358Z,67.14
2023-04-17T11:27:55.432Z,66.98
2023-04-17T11:33:16.622Z,66.87
2023-04-17T11:38:46.813Z,66.83
2023-04-17T11:44:13.066Z,66.94
2023-04-17T11:49:38.788Z,66.85
2023-04-17T11:54:59.497Z,66.66
2023-04-17T12:00:26.107Z,67.30
2023-04-17T12:05:59.523Z,66.44
2023-04-17T12:11:26.328Z,66.02
2023-04-17T12:16:51.821Z,66.41
2023-04-17T12:22:12.656Z,66.41
2023-04-17T12:27:36.674Z,66.02
2023-04-17T12:32:58.851Z,65.82
2023-04-17T12:38:19.581Z,65.53
2023-04-17T12:43:40.374Z,66.02
2023-04-17T12:49:01.051Z,65.39
2023-04-17T12:54:21.725Z,65.09
2023-04-17T12:59:42.448Z,64.92
2023-04-17T13:05:05.978Z,64.49
2023-04-17T13:10:27.076Z,64.55
2023-04-17T13:15:48.809Z,64.70
2023-04-17T13:21:09.835Z,64.31
2023-04-17T13:26:30.716Z,64.74
2023-04-17T13:31:51.648Z,64.55
2023-04-17T13:37:14.594Z,65.16
2023-04-17T13:42:35.738Z,65.30
2023-04-17T13:47:56.464Z,64.98
2023-04-17T13:53:17.289Z,64.99
2023-04-17T13:58:38.163Z,65.37
2023-04-17T14:04:02.184Z,65.12
2023-04-17T14:09:23.004Z,64.65
2023-04-17T14:14:43.768Z,65.20
2023-04-17T14:20:05.325Z,64.90
2023-04-17T14:25:26.145Z,65.51
2023-04-17T14:30:47.704Z,66.45
2023-04-17T14:36:08.912Z,67.03
2023-04-17T14:41:34.336Z,67.45
2023-04-17T14:46:57.076Z,67.49
2023-04-17T14:52:17.919Z,67.63
2023-04-17T14:57:39.460Z,68.00
2023-04-17T15:03:00.566Z,68.38
2023-04-17T15:08:21.659Z,68.75
2023-04-17T15:13:42.487Z,69.10
2023-04-17T15:19:03.453Z,69.19
2023-04-17T15:24:24.150Z,69.09
2023-04-17T15:29:46.067Z,69.40
2023-04-17T15:35:07.648Z,69.33
2023-04-17T15:40:28.578Z,69.55
2023-04-17T15:45:49.751Z,69.47
2023-04-17T15:51:10.631Z,69.67
2023-04-17T15:56:31.786Z,70.15
2023-04-17T16:01:53.550Z,69.61
2023-04-17T16:07:16.580Z,69.86
2023-04-17T16:12:41.430Z,70.38
2023-04-17T16:18:02.418Z,70.00
2023-04-17T16:23:23.064Z,70.17
2023-04-17T16:28:45.798Z,70.00
2023-04-17T16:34:06.459Z,70.38
2023-04-17T16:39:27.460Z,70.35
2023-04-17T16:44:48.467Z,70.59
2023-04-17T16:50:11.672Z,70.67
2023-04-17T16:55:32.391Z,70.83
2023-04-17T17:00:53.154Z,70.89
2023-04-17T17:06:13.838Z,71.12
2023-04-17T17:11:34.454Z,70.87
2023-04-17T17:16:55.278Z,70.91
2023-04-17T17:22:16.047Z,71.55
2023-04-17T17:27:37.120Z,71.17
2023-04-17T17:32:57.851Z,71.34
2023-04-17T17:38:18.498Z,71.33
2023-04-17T17:43:39.864Z,71.18
2023-04-17T17:49:00.608Z,71.38
2023-04-17T17:54:21.386Z,71.16
2023-04-17T17:59:42.433Z,71.56
2023-04-17T18:05:03.353Z,71.71
2023-04-17T18:10:23.997Z,71.39
2023-04-17T18:15:44.920Z,71.52
2023-04-17T18:21:07.195Z,71.61
2023-04-17T18:26:27.931Z,71.66
2023-04-17T18:31:51.161Z,71.68
2023-04-17T18:37:12.136Z,72.00
2023-04-17T18:42:32.793Z,71.62
2023-04-17T18:47:53.644Z,72.06
2023-04-17T18:53:14.624Z,71.80
2023-04-17T18:58:37.667Z,71.95
2023-04-17T19:03:58.585Z,72.35
2023-04-17T19:09:19.631Z,72.14
2023-04-17T19:14:41.212Z,72.32
2023-04-17T19:20:02.139Z,72.06
2023-04-17T19:25:22.678Z,72.21
2023-04-17T19:30:43.477Z,72.50
2023-04-17T19:36:04.367Z,72.48
2023-04-17T19:41:26.338Z,72.53
2023-04-17T19:46:47.473Z,72.40
2023-04-17T19:52:08.413Z,72.56
2023-04-17T19:57:28.973Z,72.37
2023-04-17T20:02:49.921Z,72.54
2023-04-17T20:08:10.917Z,72.38
2023-04-17T20:13:31.964Z,72.73
2023-04-17T20:18:53.105Z,72.64
2023-04-17T20:24:15.787Z,73.14
2023-04-17T20:29:36.576Z,72.45
2023-04-17T20:34:57.475Z,72.43
2023-04-17T20:40:18.587Z,72.47
2023-04-17T20:45:39.788Z,72.28
2023-04-17T20:51:05.969Z,72.87
2023-04-17T20:56:26.719Z,72.95
2023-04-17T21:01:47.505Z,72.50
2023-04-17T21:07:08.250Z,72.93
2023-04-17T21:12:29.033Z,72.59
2023-04-17T21:17:49.696Z,73.00
2023-04-17T21:23:10.982Z,72.58
2023-04-17T21:28:31.971Z,72.63
2023-04-17T21:33:52.610Z,72.98
2023-04-17T21:39:13.397Z,72.73
2023-04-17T21:44:34.022Z,72.49
2023-04-17T21:49:54.684Z,73.21
2023-04-17T21:55:15.670Z,72.95
2023-04-17T22:00:36.589Z,72.88
2023-04-17T22:05:57.508Z,73.08
2023-04-17T22:11:18.379Z,72.91
2023-04-17T22:16:39.481Z,73.30
2023-04-17T22:22:56.775Z,73.27
2023-04-17T22:29:32.380Z,73.15
2023-04-17T22:36:08.465Z,73.16
2023-04-17T22:42:44.118Z,73.29
2023-04-17T22:48:24.673Z,73.32
2023-04-17T22:53:46.639Z,73.39
2023-04-17T22:59:07.515Z,73.80
2023-04-17T23:04:28.158Z,73.81
2023-04-17T23:09:48.764Z,73.70
2023-04-17T23:15:09.952Z,73.76
2023-04-17T23:20:30.739Z,74.13
2023-04-17T23:25:52.142Z,74.10
2023-04-17T23:31:12.792Z,73.99
2023-04-17T23:36:33.290Z,74.04
2023-04-17T23:41:54.839Z,74.20
2023-04-17T23:47:16.118Z,74.31
2023-04-17T23:52:37.077Z,74.36
2023-04-17T23:57:57.994Z,74.52
